This is the latest recevied weather packets stored in our database for station/object KC1TEM-13. If no packets are shown the sender has not sent any weather packets the latest 10 day(s).
| Time | Temp. | Humidity | Pressure | Rain* | Wind** | Luminosity | Snow |
|---|---|---|---|---|---|---|---|
| 1777693511 | 5.56° C | 78% | 1012.1 hPa | 0 mm | - | 0 W/m² | - |
| 1777693209 | 5.56° C | 79% | 1012 hPa | 0 mm | - | 0 W/m² | - |
| 1777692907 | 5.56° C | 80% | 1011.9 hPa | 0 mm | - | 0 W/m² | - |
| 1777692604 | 5.56° C | 80% | 1011.8 hPa | 0 mm | - | 0 W/m² | - |
| 1777692300 | 5.56° C | 79% | 1011.8 hPa | 0 mm | - | 0 W/m² | - |
| 1777691996 | 5.56° C | 79% | 1011.8 hPa | 0 mm | - | 0 W/m² | - |
| 1777691695 | 5.56° C | 77% | 1012 hPa | 0 mm | - | 0 W/m² | - |
| 1777691393 | 5.56° C | 75% | 1012 hPa | 0 mm | - | 0 W/m² | - |
| 1777691091 | 5.56° C | 75% | 1012 hPa | 0 mm | - | 0 W/m² | - |
| 1777690788 | 5.56° C | 75% | 1012 hPa | 0 mm | - | 0 W/m² | - |
| 1777690485 | 5.56° C | 74% | 1011.9 hPa | 0 mm | - | 0 W/m² | - |
| 1777690183 | 5.56° C | 76% | 1012 hPa | 0 mm | - | 0 W/m² | - |
| 1777689881 | 5.56° C | 74% | 1011.9 hPa | 0 mm | - | 0 W/m² | - |
| 1777689579 | 6.11° C | 73% | 1012.1 hPa | 0 mm | - | 0 W/m² | - |
| 1777689276 | 6.11° C | 73% | 1012 hPa | 0 mm | - | 0 W/m² | - |
| 1777688973 | 6.11° C | 72% | 1012 hPa | 0 mm | - | 0 W/m² | - |
| 1777688670 | 6.11° C | 72% | 1011.9 hPa | 0 mm | - | 0 W/m² | - |
| 1777688367 | 6.11° C | 73% | 1011.9 hPa | 0 mm | - | 0 W/m² | - |
| 1777688064 | 6.67° C | 73% | 1011.7 hPa | 0 mm | - | 0 W/m² | - |
| 1777687761 | 6.67° C | 71% | 1011.8 hPa | 0 mm | - | 0 W/m² | - |
| 1777687460 | 6.67° C | 70% | 1012 hPa | 0 mm | - | 0 W/m² | - |
| 1777687155 | 6.67° C | 73% | 1011.7 hPa | 0 mm | - | 0 W/m² | - |
| 1777686853 | 6.67° C | 71% | 1011.8 hPa | 0 mm | - | 0 W/m² | - |
| 1777686550 | 7.22° C | 70% | 1011.8 hPa | 0 mm | - | 0 W/m² | - |
| 1777686246 | 7.22° C | 70% | 1011.7 hPa | 0 mm | - | 0 W/m² | - |
* Rain latest hour (hover to see other rain measurements)
** Current wind speed in m/s (hover to see current wind gust speed)